createdAt,value
2018-05-21T00:01:01.414Z,59.8
2018-05-21T00:02:08.636Z,62.2
2018-05-21T00:03:15.848Z,59.5
2018-05-21T00:04:23.054Z,59.1
2018-05-21T00:05:30.276Z,59
2018-05-21T00:06:37.489Z,59.7
2018-05-21T00:07:44.705Z,59.6
2018-05-21T00:08:51.094Z,63.3
2018-05-21T00:09:58.304Z,64.7
2018-05-21T00:11:05.508Z,63
2018-05-21T00:12:12.719Z,62.6
2018-05-21T00:13:19.933Z,62.6
2018-05-21T00:14:27.157Z,63.1
2018-05-21T00:15:34.418Z,64.3
2018-05-21T00:16:41.638Z,63.2
2018-05-21T00:17:48.686Z,64.2
2018-05-21T00:18:55.891Z,63.2
2018-05-21T00:20:03.117Z,62.4
2018-05-21T00:21:10.325Z,63.6
2018-05-21T00:22:17.712Z,63.2
2018-05-21T00:23:24.639Z,62
2018-05-21T00:24:31.846Z,62.6
2018-05-21T00:25:39.057Z,64.1
2018-05-21T00:26:46.287Z,65.2
2018-05-21T00:27:53.495Z,64.5
2018-05-21T00:29:00.704Z,64
2018-05-21T00:30:07.923Z,65.9
2018-05-21T00:31:15.145Z,65.9
2018-05-21T00:32:22.354Z,66.7
2018-05-21T00:33:29.561Z,64
2018-05-21T00:34:36.766Z,64.4
2018-05-21T00:35:43.995Z,64.3
2018-05-21T00:36:51.235Z,65.8
2018-05-21T00:37:58.445Z,68.5
2018-05-21T00:39:05.651Z,67.2
2018-05-21T00:40:12.581Z,68.7
2018-05-21T00:41:19.789Z,67.9
2018-05-21T00:42:27.241Z,71.5
2018-05-21T00:43:34.454Z,73
2018-05-21T00:44:41.394Z,71.5
2018-05-21T00:45:48.329Z,73.2
2018-05-21T00:46:55.526Z,72.4
2018-05-21T00:48:02.738Z,73.9
2018-05-21T00:49:09.906Z,72.4
2018-05-21T00:50:16.914Z,77.2
2018-05-21T00:51:24.366Z,76.5
2018-05-21T00:52:31.605Z,77
2018-05-21T00:53:38.787Z,83.3
2018-05-21T00:54:46.015Z,84.6
2018-05-21T00:55:53.236Z,86
2018-05-21T00:57:00.458Z,86.1
2018-05-21T00:58:07.683Z,86
2018-05-21T00:59:14.895Z,85.8
2018-05-21T01:00:21.861Z,84.5
2018-05-21T01:01:29.075Z,83.8
2018-05-21T01:02:36.300Z,85.3
2018-05-21T01:03:43.250Z,85.8
2018-05-21T01:04:50.181Z,87.8
2018-05-21T01:05:57.408Z,87.4
2018-05-21T01:07:04.614Z,87.6
2018-05-21T01:08:11.547Z,88.1
2018-05-21T01:09:18.780Z,90.2
2018-05-21T01:10:25.713Z,90.4
2018-05-21T01:11:33.047Z,89.8
2018-05-21T01:12:39.996Z,90.5
2018-05-21T01:13:47.231Z,91.1
2018-05-21T01:14:54.440Z,90.1
2018-05-21T01:16:01.392Z,90.2
2018-05-21T01:17:08.602Z,90.8
2018-05-21T01:18:16.046Z,91.2
2018-05-21T01:19:23.256Z,91.4
2018-05-21T01:20:30.143Z,92.1
2018-05-21T01:21:37.361Z,92
2018-05-21T01:22:44.317Z,92
2018-05-21T01:23:51.526Z,92.3
2018-05-21T01:24:58.734Z,92.6
2018-05-21T01:26:05.948Z,92.2
2018-05-21T01:27:13.159Z,92.6
2018-05-21T01:28:20.368Z,92.9
2018-05-21T01:29:27.593Z,93.4
2018-05-21T01:30:34.807Z,94
2018-05-21T01:31:42.009Z,94
2018-05-21T01:32:49.213Z,94.8
2018-05-21T01:33:56.419Z,95.1
2018-05-21T01:35:03.628Z,95.4
2018-05-21T01:36:10.835Z,96.7
2018-05-21T01:37:18.040Z,96.7
2018-05-21T01:38:24.976Z,96.8
2018-05-21T01:39:32.187Z,96.3
2018-05-21T01:40:39.122Z,96.7
2018-05-21T01:41:46.326Z,96.7
2018-05-21T01:42:53.533Z,96
2018-05-21T01:44:00.748Z,96.9
2018-05-21T01:45:07.957Z,95.4
2018-05-21T01:46:14.635Z,97.7
2018-05-21T01:47:21.851Z,98
2018-05-21T01:48:28.518Z,98.8
2018-05-21T01:49:35.455Z,99.2
2018-05-21T01:50:42.379Z,99
2018-05-21T01:51:49.585Z,99.9
2018-05-21T01:52:56.513Z,99.7
2018-05-21T01:54:03.453Z,99.9
2018-05-21T01:55:10.679Z,99.9
2018-05-21T01:56:17.895Z,99.9
2018-05-21T01:57:25.100Z,99.9
2018-05-21T01:58:32.314Z,99.9
2018-05-21T01:59:39.540Z,99.9
2018-05-21T02:00:46.477Z,99.9
2018-05-21T02:01:53.691Z,99.9
2018-05-21T02:03:00.901Z,99.9
2018-05-21T02:04:08.112Z,99.9
2018-05-21T02:05:15.044Z,99.9
2018-05-21T02:06:22.255Z,99.9
2018-05-21T02:07:29.187Z,99.9
2018-05-21T02:08:36.415Z,99.9
2018-05-21T02:09:43.507Z,99.9
2018-05-21T02:10:50.713Z,99.9
2018-05-21T02:11:57.926Z,99.9
2018-05-21T02:13:05.132Z,99.9
2018-05-21T02:14:12.339Z,99.9
2018-05-21T02:15:19.263Z,99.9
2018-05-21T02:16:26.470Z,99.9
2018-05-21T02:17:33.680Z,99.9
2018-05-21T02:18:40.900Z,99.9
2018-05-21T02:19:48.109Z,99.9
2018-05-21T02:20:55.041Z,99.9
2018-05-21T02:22:02.247Z,99.9
2018-05-21T02:23:09.463Z,99.9
2018-05-21T02:24:16.409Z,99.9
2018-05-21T02:25:23.622Z,99.9
2018-05-21T02:26:30.825Z,99.9
2018-05-21T02:27:37.757Z,99.9
2018-05-21T02:28:44.700Z,99.9
2018-05-21T02:29:51.902Z,99.9
2018-05-21T02:30:59.120Z,99.9
2018-05-21T02:32:06.329Z,99.9
2018-05-21T02:33:13.269Z,99.9
2018-05-21T02:34:20.485Z,99.9
2018-05-21T02:35:27.688Z,99.9
2018-05-21T02:36:34.634Z,99.9
2018-05-21T02:37:41.833Z,99.9
2018-05-21T02:38:49.047Z,99.9
2018-05-21T02:39:56.260Z,99.9
2018-05-21T02:41:03.465Z,99.9
2018-05-21T02:42:10.672Z,99.9
2018-05-21T02:43:17.887Z,99.9
2018-05-21T02:44:25.095Z,99.9
2018-05-21T02:45:32.302Z,99.9
2018-05-21T02:46:39.507Z,99.9
2018-05-21T02:47:46.716Z,99.9
2018-05-21T02:48:53.927Z,99.9
2018-05-21T02:50:00.846Z,99.9
2018-05-21T02:51:08.150Z,99.9
2018-05-21T02:52:15.357Z,99.9
2018-05-21T02:53:22.569Z,99.9
2018-05-21T02:54:29.778Z,99.9
2018-05-21T02:55:37.002Z,99.9
2018-05-21T02:56:43.942Z,99.9
2018-05-21T02:57:50.883Z,99.9
2018-05-21T02:58:58.093Z,99.9
2018-05-21T03:00:05.408Z,99.9
2018-05-21T03:01:12.609Z,99.9
2018-05-21T03:02:19.818Z,99.9
2018-05-21T03:03:27.038Z,99.9
2018-05-21T03:04:34.245Z,99.9
2018-05-21T03:05:41.519Z,99.9
2018-05-21T03:06:48.708Z,99.9
2018-05-21T03:07:55.928Z,99.9
2018-05-21T03:09:03.151Z,99.9
2018-05-21T03:10:10.354Z,99.9
2018-05-21T03:11:17.557Z,99.9
2018-05-21T03:12:24.496Z,99.9
2018-05-21T03:13:31.697Z,99.9
2018-05-21T03:14:38.903Z,99.9
2018-05-21T03:15:46.119Z,99.9
2018-05-21T03:16:53.332Z,99.9
2018-05-21T03:18:00.540Z,99.9
2018-05-21T03:19:07.745Z,99.9
2018-05-21T03:20:14.957Z,99.9
2018-05-21T03:22:44.026Z,99.9
2018-05-21T03:23:51.230Z,99.9
2018-05-21T03:24:58.437Z,99.9
2018-05-21T03:26:05.644Z,99.9
2018-05-21T03:27:12.579Z,99.9
2018-05-21T03:28:19.513Z,99.9
2018-05-21T03:29:26.729Z,99.9
2018-05-21T03:30:33.678Z,99.9
2018-05-21T03:31:41.117Z,99.9
2018-05-21T03:32:48.313Z,99.9
2018-05-21T03:33:55.569Z,99.9
2018-05-21T03:35:02.485Z,99.9
2018-05-21T03:36:09.438Z,99.9
2018-05-21T03:37:16.651Z,99.9
2018-05-21T03:38:23.856Z,99.9
2018-05-21T03:39:31.069Z,99.9
2018-05-21T03:40:38.276Z,99.9
2018-05-21T03:41:45.487Z,99.9
2018-05-21T03:42:52.416Z,99.9
2018-05-21T03:43:59.630Z,99.9
2018-05-21T03:45:06.831Z,99.9
2018-05-21T03:46:14.045Z,99.9
2018-05-21T03:47:20.977Z,99.9
2018-05-21T03:48:27.914Z,99.9
2018-05-21T03:49:35.148Z,99.9
2018-05-21T03:50:42.084Z,99.9
2018-05-21T03:51:49.380Z,99.9
2018-05-21T03:52:56.584Z,99.9
2018-05-21T03:54:03.801Z,99.9
2018-05-21T03:55:11.010Z,99.9
2018-05-21T03:56:18.218Z,99.9
2018-05-21T03:57:25.156Z,99.9
2018-05-21T03:58:32.356Z,99.9
2018-05-21T03:59:39.566Z,99.9
2018-05-21T04:00:46.773Z,99.9
2018-05-21T04:01:53.985Z,99.9
2018-05-21T04:03:00.911Z,99.9
2018-05-21T04:04:08.123Z,99.9
2018-05-21T04:05:15.329Z,99.9
2018-05-21T04:06:22.539Z,99.9
2018-05-21T04:07:29.743Z,99.9
2018-05-21T04:08:36.690Z,99.9
2018-05-21T04:09:43.896Z,99.9
2018-05-21T04:10:50.830Z,99.9
2018-05-21T04:11:58.062Z,99.9
2018-05-21T04:13:05.482Z,99.9
2018-05-21T04:14:12.706Z,99.9
2018-05-21T04:15:19.927Z,99.9
2018-05-21T04:16:26.860Z,99.9
2018-05-21T04:17:33.787Z,99.9
2018-05-21T04:18:41.000Z,99.9
2018-05-21T04:19:48.352Z,99.9
2018-05-21T04:20:55.559Z,99.9
2018-05-21T04:22:02.771Z,99.9
2018-05-21T04:23:09.778Z,99.9
2018-05-21T04:24:16.632Z,99.9
2018-05-21T04:25:23.849Z,99.9
2018-05-21T04:26:31.067Z,99.9
2018-05-21T04:27:38.277Z,99.9
2018-05-21T04:28:45.489Z,99.9
2018-05-21T04:29:52.697Z,99.9
2018-05-21T04:30:59.924Z,99.9
2018-05-21T04:32:06.851Z,99.9
2018-05-21T04:33:14.061Z,99.9
2018-05-21T04:34:20.994Z,99.9
2018-05-21T04:35:27.942Z,99.9
2018-05-21T04:36:35.149Z,99.9
2018-05-21T04:37:42.078Z,99.9
2018-05-21T04:38:49.296Z,99.9
2018-05-21T04:39:56.507Z,99.9
2018-05-21T04:41:03.718Z,99.9
2018-05-21T04:42:10.920Z,99.9
2018-05-21T04:43:18.125Z,99.9
2018-05-21T04:44:25.348Z,99.9
2018-05-21T04:45:32.558Z,99.9
2018-05-21T04:46:39.489Z,99.9
2018-05-21T04:47:46.703Z,99.9
2018-05-21T04:48:54.182Z,99.9
2018-05-21T04:50:01.404Z,99.9
2018-05-21T04:51:08.627Z,99.9
2018-05-21T04:52:15.289Z,99.9
2018-05-21T04:53:22.219Z,99.9
2018-05-21T04:54:29.425Z,99.9
2018-05-21T04:55:36.654Z,99.9
2018-05-21T04:56:43.857Z,99.9
2018-05-21T04:57:51.069Z,99.9
2018-05-21T04:58:58.281Z,99.9
2018-05-21T05:00:05.210Z,99.9
2018-05-21T05:01:12.421Z,99.9
2018-05-21T05:03:41.489Z,99.9
2018-05-21T05:04:48.699Z,99.9
2018-05-21T05:05:55.702Z,99.9
2018-05-21T05:07:02.910Z,99.9
2018-05-21T05:08:10.117Z,99.9
2018-05-21T05:09:17.050Z,99.9
2018-05-21T05:10:23.978Z,99.9
2018-05-21T05:11:31.187Z,99.9
2018-05-21T05:12:38.393Z,99.9
2018-05-21T05:13:45.323Z,99.9
2018-05-21T05:14:52.528Z,99.9
2018-05-21T05:15:59.751Z,99.9
2018-05-21T05:17:06.715Z,99.9
2018-05-21T05:18:13.915Z,99.9
2018-05-21T05:19:21.168Z,99.9
2018-05-21T05:20:28.373Z,99.9
2018-05-21T05:21:35.598Z,99.9
2018-05-21T05:22:42.802Z,99.9
2018-05-21T05:23:50.009Z,99.9
2018-05-21T05:24:57.220Z,99.9
2018-05-21T05:26:04.428Z,99.9
2018-05-21T05:27:11.359Z,99.9
2018-05-21T05:28:18.564Z,99.9
2018-05-21T05:29:25.785Z,99.9
2018-05-21T05:30:33.008Z,99.9
2018-05-21T05:31:40.221Z,99.9
2018-05-21T05:32:47.431Z,99.9
2018-05-21T05:33:54.379Z,99.9
2018-05-21T05:35:01.594Z,99.9
2018-05-21T05:36:08.913Z,99.9
2018-05-21T05:37:15.937Z,99.9
2018-05-21T05:38:22.874Z,99.9
2018-05-21T05:39:30.076Z,99.9
2018-05-21T05:40:37.285Z,99.9
2018-05-21T05:41:44.498Z,99.9
2018-05-21T05:42:51.849Z,99.9
2018-05-21T05:43:59.060Z,99.9
2018-05-21T05:45:06.275Z,99.9
2018-05-21T05:46:13.483Z,99.9
2018-05-21T05:47:20.718Z,99.9
2018-05-21T05:48:27.932Z,99.9
2018-05-21T05:49:35.141Z,99.9
2018-05-21T05:50:42.357Z,99.9
2018-05-21T05:51:49.578Z,99.9
2018-05-21T05:52:56.528Z,99.9
2018-05-21T05:54:03.737Z,99.9
2018-05-21T05:55:10.947Z,99.9
2018-05-21T05:56:18.152Z,99.9
2018-05-21T05:57:25.368Z,99.9
2018-05-21T05:58:32.586Z,99.9
2018-05-21T05:59:39.798Z,99.9
2018-05-21T06:00:47.009Z,99.9
2018-05-21T06:01:54.213Z,99.9
2018-05-21T06:03:01.428Z,98.8
2018-05-21T06:04:08.627Z,95.4
2018-05-21T06:05:15.846Z,95.8
2018-05-21T06:06:23.057Z,95
2018-05-21T06:07:30.276Z,92.3
2018-05-21T06:08:37.218Z,93.9
2018-05-21T06:09:44.445Z,86.5
2018-05-21T06:10:51.668Z,93.2
2018-05-21T06:11:58.873Z,91.5
2018-05-21T06:13:06.164Z,94.9
2018-05-21T06:14:13.132Z,86.8
2018-05-21T06:15:20.370Z,86
2018-05-21T06:16:27.592Z,89.5
2018-05-21T06:17:34.811Z,81.6
2018-05-21T06:18:42.022Z,86.1
2018-05-21T06:19:49.245Z,81.4
2018-05-21T06:20:56.451Z,80.4
2018-05-21T06:22:03.671Z,80.5
2018-05-21T06:23:10.883Z,75
2018-05-21T06:24:18.106Z,75.7
2018-05-21T06:25:25.321Z,76
2018-05-21T06:26:32.259Z,74.9
2018-05-21T06:27:39.488Z,79.7
2018-05-21T06:28:46.701Z,72
2018-05-21T06:29:53.633Z,71.7
2018-05-21T06:31:00.848Z,74.9
2018-05-21T06:32:08.092Z,70.8
2018-05-21T06:33:15.305Z,72.4
2018-05-21T06:34:22.663Z,74.3
2018-05-21T06:35:30.447Z,75.8
2018-05-21T06:36:37.668Z,76.1
2018-05-21T06:37:45.077Z,74
2018-05-21T06:38:52.022Z,72.1
2018-05-21T06:39:58.998Z,62.5
2018-05-21T06:41:06.022Z,67.1
2018-05-21T06:42:13.533Z,70
2018-05-21T06:43:20.255Z,65.4
2018-05-21T06:44:27.470Z,58.5
2018-05-21T06:45:34.690Z,62.9
2018-05-21T06:46:41.907Z,74.7
2018-05-21T06:47:49.143Z,65.2
2018-05-21T06:48:56.880Z,61.7
2018-05-21T06:50:03.819Z,65.9
2018-05-21T06:51:11.037Z,66.3
2018-05-21T06:52:17.977Z,61.8
2018-05-21T06:53:25.188Z,62.3
2018-05-21T06:54:32.414Z,62.2
2018-05-21T06:55:39.630Z,61.5
2018-05-21T06:56:46.856Z,60.8
2018-05-21T06:57:54.070Z,55.2
2018-05-21T06:59:01.320Z,56.7
2018-05-21T07:00:08.531Z,56.3
2018-05-21T07:01:15.501Z,48.6
2018-05-21T07:02:22.730Z,49.9
2018-05-21T07:03:29.952Z,53.4
2018-05-21T07:04:37.163Z,46.9
2018-05-21T07:05:44.370Z,55.9
2018-05-21T07:06:51.597Z,54.8
2018-05-21T07:07:58.842Z,46.4
2018-05-21T07:09:06.162Z,46.3
2018-05-21T07:10:13.376Z,52.3
2018-05-21T07:11:20.596Z,48.7
2018-05-21T07:12:27.530Z,48.7
2018-05-21T07:13:34.770Z,51.2
2018-05-21T07:14:41.985Z,47.4
2018-05-21T07:15:49.209Z,48.9
2018-05-21T07:16:56.436Z,53.2
2018-05-21T07:18:03.386Z,46.6
2018-05-21T07:19:10.616Z,44.8
2018-05-21T07:20:17.844Z,46
2018-05-21T07:21:25.054Z,53.4
2018-05-21T07:22:32.486Z,46.6
2018-05-21T07:23:39.705Z,45.4
2018-05-21T07:24:46.923Z,42.3
2018-05-21T07:25:54.133Z,46.5
2018-05-21T07:27:01.075Z,48
2018-05-21T07:28:08.349Z,44.8
2018-05-21T07:29:15.572Z,39.8
2018-05-21T07:30:22.784Z,41.3
2018-05-21T07:31:30.078Z,38.1
2018-05-21T07:32:37.419Z,40
2018-05-21T07:33:44.637Z,37.4
2018-05-21T07:34:51.853Z,34.6
2018-05-21T07:35:59.083Z,45.3
2018-05-21T07:37:06.311Z,33.6
2018-05-21T07:38:13.737Z,35.8
2018-05-21T07:39:20.959Z,32.1
2018-05-21T07:40:28.161Z,41.8
2018-05-21T07:41:35.103Z,36.1
2018-05-21T07:42:42.272Z,32
2018-05-21T07:43:49.483Z,36.5
2018-05-21T07:44:56.544Z,39.8
2018-05-21T07:46:03.993Z,32.4
2018-05-21T07:47:11.223Z,36.2
2018-05-21T07:48:18.438Z,32.3
2018-05-21T07:49:25.662Z,28.6
2018-05-21T07:50:32.875Z,38.7
2018-05-21T07:51:40.134Z,35.1
2018-05-21T07:52:47.863Z,30
2018-05-21T07:53:55.078Z,38
2018-05-21T07:55:02.291Z,30.3
2018-05-21T07:56:09.501Z,26.5
2018-05-21T07:57:16.442Z,35.1
2018-05-21T07:58:23.648Z,28.7
2018-05-21T07:59:30.870Z,32
2018-05-21T08:00:38.086Z,30.6
2018-05-21T08:01:45.303Z,27.8
2018-05-21T08:02:52.522Z,26
2018-05-21T08:03:59.826Z,30.5
2018-05-21T08:05:07.028Z,28.4
2018-05-21T08:06:14.330Z,25.7
2018-05-21T08:07:21.547Z,27.1
2018-05-21T08:08:28.759Z,28.7
2018-05-21T08:09:35.972Z,33.2
2018-05-21T08:10:43.208Z,31
2018-05-21T08:11:50.480Z,28.6
2018-05-21T08:12:57.683Z,22.7
2018-05-21T08:14:04.896Z,26.3
2018-05-21T08:15:12.111Z,22.6
2018-05-21T08:16:19.328Z,28.8
2018-05-21T08:17:26.279Z,21.2
2018-05-21T08:18:33.223Z,24
2018-05-21T08:19:40.436Z,24.8
2018-05-21T08:20:47.650Z,27.4
2018-05-21T08:21:54.868Z,26.4
2018-05-21T08:23:02.085Z,27.2
2018-05-21T08:24:09.296Z,25.2
2018-05-21T08:25:16.252Z,27.1
2018-05-21T08:26:23.476Z,25.1
2018-05-21T08:27:30.698Z,19.5
2018-05-21T08:28:37.909Z,27.4
2018-05-21T08:29:45.145Z,25.3
2018-05-21T08:30:52.361Z,25.1
2018-05-21T08:31:59.593Z,22.6
2018-05-21T08:33:06.811Z,20.5
2018-05-21T08:34:14.035Z,25
2018-05-21T08:35:21.253Z,22.3
2018-05-21T08:36:28.464Z,23.1
2018-05-21T08:37:35.688Z,30
2018-05-21T08:38:42.902Z,26
2018-05-21T08:39:50.123Z,25.3
2018-05-21T08:40:57.338Z,25.9
2018-05-21T08:42:04.276Z,21.1
2018-05-21T08:43:11.488Z,18.6
2018-05-21T08:44:18.708Z,20.4
2018-05-21T08:45:25.930Z,19.3
2018-05-21T08:46:33.157Z,20.4
2018-05-21T08:47:40.378Z,19.7
2018-05-21T08:48:47.627Z,22.7
2018-05-21T08:49:55.515Z,18.5
2018-05-21T08:51:02.948Z,22.9
2018-05-21T08:52:10.162Z,18.8
2018-05-21T08:53:17.393Z,23.2
2018-05-21T08:54:24.614Z,17.7
2018-05-21T08:55:31.875Z,16.7
2018-05-21T08:56:39.170Z,18
2018-05-21T08:57:46.411Z,18.7
2018-05-21T08:58:53.720Z,20.8
2018-05-21T09:00:00.681Z,17.5
2018-05-21T09:01:07.985Z,17.1
2018-05-21T09:02:15.199Z,19.5
2018-05-21T09:03:22.416Z,24.3
2018-05-21T09:04:29.638Z,18.5
2018-05-21T09:05:36.857Z,26.3
2018-05-21T09:06:44.077Z,23.7
2018-05-21T09:07:51.306Z,21.1
2018-05-21T09:08:58.522Z,20.1
2018-05-21T09:10:05.852Z,15.9
2018-05-21T09:11:13.617Z,15.8
2018-05-21T09:12:21.123Z,18.3
2018-05-21T09:13:28.503Z,18.4
2018-05-21T09:14:35.739Z,19.2
2018-05-21T09:15:42.966Z,23.1
2018-05-21T09:16:50.183Z,18.4
2018-05-21T09:17:57.392Z,17.5
2018-05-21T09:19:04.606Z,17.2
2018-05-21T09:20:11.829Z,16.8
2018-05-21T09:21:19.049Z,22.2
2018-05-21T09:22:26.265Z,20.1
2018-05-21T09:23:33.476Z,16.7
2018-05-21T09:24:40.725Z,15.7
2018-05-21T09:25:47.677Z,20.5
2018-05-21T09:26:54.622Z,21.6
2018-05-21T09:28:01.831Z,16.2
2018-05-21T09:29:09.049Z,16.2
2018-05-21T09:30:16.270Z,15.7
2018-05-21T09:31:23.580Z,15.1
2018-05-21T09:32:31.234Z,18.9
2018-05-21T09:35:30.114Z,13.1
2018-05-21T09:36:36.785Z,20.3
2018-05-21T09:37:43.457Z,20.4
2018-05-21T09:38:50.408Z,17.3
2018-05-21T09:39:57.623Z,19.5
2018-05-21T09:41:04.567Z,15.8
2018-05-21T09:42:11.783Z,11.6
2018-05-21T09:43:19.009Z,13.6
2018-05-21T09:44:25.950Z,20.3
2018-05-21T09:45:33.177Z,16.3
2018-05-21T09:46:40.392Z,14.6
2018-05-21T09:47:47.621Z,13.9
2018-05-21T09:48:54.836Z,16.8
2018-05-21T09:50:02.055Z,14.9
2018-05-21T09:51:09.272Z,14.8
2018-05-21T09:52:16.488Z,14.4
2018-05-21T09:53:23.437Z,12.6
2018-05-21T09:54:30.673Z,16.1
2018-05-21T09:55:37.900Z,14.6
2018-05-21T09:56:45.119Z,15.9
2018-05-21T09:57:52.339Z,17.6
2018-05-21T09:58:59.299Z,12.9
2018-05-21T10:00:05.974Z,14
2018-05-21T10:01:13.187Z,12.7
2018-05-21T10:02:20.418Z,17.4
2018-05-21T10:03:27.359Z,13.1
2018-05-21T10:04:34.592Z,18
2018-05-21T10:05:41.807Z,13.8
2018-05-21T10:06:49.025Z,13.8
2018-05-21T10:07:56.240Z,13.8
2018-05-21T10:09:03.218Z,11.1
2018-05-21T10:10:10.451Z,14.1
2018-05-21T10:11:17.678Z,17.5
2018-05-21T10:12:24.906Z,11.7
2018-05-21T10:13:32.126Z,11.8
2018-05-21T10:14:39.106Z,13.2
2018-05-21T10:15:46.331Z,12.3
2018-05-21T10:16:53.568Z,13.4
2018-05-21T10:18:00.784Z,12
2018-05-21T10:19:08.010Z,14.2
2018-05-21T10:20:15.236Z,15.2
2018-05-21T10:21:22.451Z,11.4
2018-05-21T10:22:29.661Z,11.5
2018-05-21T10:23:36.881Z,11.5
2018-05-21T10:24:44.095Z,9.8
2018-05-21T10:25:51.317Z,10
2018-05-21T10:26:58.536Z,14.8
2018-05-21T10:28:05.530Z,13.7
2018-05-21T10:29:12.743Z,14.2
2018-05-21T10:30:19.461Z,13.2
2018-05-21T10:31:26.404Z,10.7
2018-05-21T10:32:33.621Z,11
2018-05-21T10:33:40.858Z,13.5
2018-05-21T10:34:48.095Z,14.2
2018-05-21T10:35:55.320Z,13.3
2018-05-21T10:37:02.582Z,11
2018-05-21T10:38:09.774Z,13.6
2018-05-21T10:39:17.008Z,9.1
2018-05-21T10:40:24.227Z,13.2
2018-05-21T10:41:31.464Z,11.6
2018-05-21T10:42:38.402Z,10.7
2018-05-21T10:43:45.686Z,10.9
2018-05-21T10:44:53.117Z,9.9
2018-05-21T10:46:00.337Z,11.7
2018-05-21T10:47:07.556Z,11.8
2018-05-21T10:48:14.496Z,16.7
2018-05-21T10:49:21.786Z,9.1
2018-05-21T10:50:29.019Z,16.1
2018-05-21T10:51:36.240Z,13.3
2018-05-21T10:52:43.460Z,9.1
2018-05-21T10:53:50.684Z,9
2018-05-21T10:54:57.899Z,9.1
2018-05-21T10:56:05.172Z,7.3
2018-05-21T10:57:12.600Z,6
2018-05-21T10:58:19.824Z,6.3
2018-05-21T10:59:27.051Z,9.3
2018-05-21T11:00:33.998Z,8.6
2018-05-21T11:01:41.432Z,9.1
2018-05-21T11:02:48.941Z,8
2018-05-21T11:03:56.174Z,9.4
2018-05-21T11:05:03.392Z,10.8
2018-05-21T11:06:10.622Z,8.6
2018-05-21T11:07:17.858Z,9.1
2018-05-21T11:08:24.827Z,13.4
2018-05-21T11:09:31.765Z,8.8
2018-05-21T11:10:39.005Z,10.7
2018-05-21T11:11:46.225Z,9.4
2018-05-21T11:12:53.472Z,9.7
2018-05-21T11:14:00.695Z,10.4
2018-05-21T11:15:07.910Z,10.9
2018-05-21T11:16:14.584Z,12.3
2018-05-21T11:17:21.810Z,10.8
2018-05-21T11:18:29.025Z,7.3
2018-05-21T11:19:35.965Z,8.5
2018-05-21T11:20:42.908Z,8.5
2018-05-21T11:21:50.123Z,12.4
2018-05-21T11:22:57.343Z,9.2
2018-05-21T11:24:04.566Z,11.1
2018-05-21T11:25:11.785Z,9.5
2018-05-21T11:26:19.001Z,9.6
2018-05-21T11:27:26.221Z,10.1
2018-05-21T11:28:33.438Z,7.5
2018-05-21T11:29:40.671Z,7
2018-05-21T11:30:48.121Z,12.6
2018-05-21T11:31:55.361Z,7.9
2018-05-21T11:33:02.847Z,10.7
2018-05-21T11:34:10.065Z,8
2018-05-21T11:35:17.012Z,7.4
2018-05-21T11:37:31.150Z,6.8
2018-05-21T11:38:38.383Z,7.7
2018-05-21T11:39:45.608Z,6.1
2018-05-21T11:40:52.566Z,8.8
2018-05-21T11:41:59.790Z,10.2
2018-05-21T11:43:07.014Z,8.1
2018-05-21T11:44:14.233Z,8.3
2018-05-21T11:45:21.182Z,11.3
2018-05-21T11:46:28.427Z,7.9
2018-05-21T11:47:35.707Z,7.2
2018-05-21T11:48:42.930Z,6.1
2018-05-21T11:49:50.151Z,10.4
2018-05-21T11:50:57.372Z,6.1
2018-05-21T11:52:04.593Z,6.8
2018-05-21T11:53:11.535Z,8.3
2018-05-21T11:54:18.765Z,13.2
2018-05-21T11:55:25.710Z,9.5
2018-05-21T11:56:32.932Z,7.7
2018-05-21T11:57:40.153Z,8.8
2018-05-21T11:58:47.390Z,6.9
2018-05-21T11:59:54.411Z,11.9
2018-05-21T12:01:01.650Z,6.5
2018-05-21T12:02:08.874Z,6.6
2018-05-21T12:03:16.354Z,7.9
2018-05-21T12:04:23.585Z,7.3
2018-05-21T12:05:30.804Z,4.5
2018-05-21T12:06:38.023Z,8.1
2018-05-21T12:07:45.319Z,6.7
2018-05-21T12:08:53.134Z,5.6
2018-05-21T12:10:00.358Z,5.8
2018-05-21T12:11:07.312Z,6.5
2018-05-21T12:12:14.405Z,5.6
2018-05-21T12:13:21.629Z,6.4
2018-05-21T12:14:28.863Z,7
2018-05-21T12:15:36.086Z,5.4
2018-05-21T12:16:43.303Z,7.5
2018-05-21T12:17:50.247Z,8.1
2018-05-21T12:18:57.467Z,11.3
2018-05-21T12:20:04.697Z,5.9
2018-05-21T12:21:11.928Z,4.9
2018-05-21T12:22:19.150Z,8.4
2018-05-21T12:23:26.792Z,6.1
2018-05-21T12:24:34.624Z,6.2
2018-05-21T12:25:41.568Z,7.6
2018-05-21T12:26:48.520Z,5.4
2018-05-21T12:27:55.887Z,5.8
2018-05-21T12:29:03.113Z,7.8
2018-05-21T12:30:10.069Z,2.8
2018-05-21T12:31:17.288Z,4.7
2018-05-21T12:32:24.512Z,5.4
2018-05-21T12:33:31.740Z,2.8
2018-05-21T12:34:38.975Z,2.8
2018-05-21T12:35:46.199Z,4
2018-05-21T12:36:53.421Z,7.6
2018-05-21T12:38:00.644Z,4.2
2018-05-21T12:39:07.605Z,4.9
2018-05-21T12:40:14.891Z,7.5
2018-05-21T12:41:21.831Z,3.5
2018-05-21T12:42:29.055Z,4.4
2018-05-21T12:43:35.723Z,3.7
2018-05-21T12:44:42.952Z,9.2
2018-05-21T12:45:50.177Z,5.4
2018-05-21T12:46:57.437Z,5.7
2018-05-21T12:48:05.093Z,1.8
2018-05-21T12:49:12.316Z,3.9
2018-05-21T12:50:19.543Z,6.1
2018-05-21T12:51:26.767Z,6.1
2018-05-21T12:52:33.742Z,3.4
2018-05-21T12:53:40.959Z,5.5
2018-05-21T12:54:47.952Z,3.7
2018-05-21T12:55:55.438Z,3.6
2018-05-21T12:57:02.666Z,3.7
2018-05-21T12:58:09.881Z,6.7
2018-05-21T12:59:17.115Z,4.4
2018-05-21T13:00:24.345Z,2.7
2018-05-21T13:01:31.584Z,4.6
2018-05-21T13:02:38.816Z,2.8
2018-05-21T13:03:45.765Z,5.3
2018-05-21T13:04:52.983Z,3.3
2018-05-21T13:06:00.213Z,2.3
2018-05-21T13:07:07.441Z,2.6
2018-05-21T13:08:14.666Z,2.7
2018-05-21T13:09:21.886Z,8.7
2018-05-21T13:10:29.103Z,3.3
2018-05-21T13:11:36.327Z,4.5
2018-05-21T13:12:43.547Z,2.4
2018-05-21T13:13:50.511Z,3
2018-05-21T13:14:57.736Z,8.3
2018-05-21T13:16:04.974Z,3.4
2018-05-21T13:17:12.195Z,4.8
2018-05-21T13:18:19.423Z,5.4
2018-05-21T13:19:26.651Z,2
2018-05-21T13:20:33.554Z,2.4
2018-05-21T13:21:40.782Z,2.4
2018-05-21T13:22:48.007Z,4.8
2018-05-21T13:23:55.227Z,4.8
2018-05-21T13:25:02.466Z,3.3
2018-05-21T13:26:09.690Z,2.9
2018-05-21T13:27:16.918Z,2.7
2018-05-21T13:28:24.121Z,5.7
2018-05-21T13:29:31.054Z,3.8
2018-05-21T13:30:38.326Z,4.2
2018-05-21T13:31:45.278Z,4.6
2018-05-21T13:32:52.514Z,2.9
2018-05-21T13:33:59.744Z,2.7
2018-05-21T13:35:06.982Z,1
2018-05-21T13:36:14.207Z,4.3
2018-05-21T13:37:21.190Z,1.5
2018-05-21T13:38:28.413Z,3.3
2018-05-21T13:39:35.638Z,2.6
2018-05-21T13:40:42.857Z,3.8
2018-05-21T13:41:50.073Z,4.8
2018-05-21T13:42:57.300Z,5.6
2018-05-21T13:45:26.394Z,5
2018-05-21T13:46:33.614Z,3.6
2018-05-21T13:47:40.834Z,2.4
2018-05-21T13:48:48.061Z,2.4
2018-05-21T13:49:55.281Z,4.7
2018-05-21T13:51:02.591Z,1
2018-05-21T13:52:09.841Z,2.9
2018-05-21T13:53:17.356Z,1
2018-05-21T13:54:24.576Z,2.6
2018-05-21T13:55:31.819Z,3.4
2018-05-21T13:56:39.042Z,2.4
2018-05-21T13:57:46.666Z,3.1
2018-05-21T13:58:53.907Z,5.9
2018-05-21T14:00:01.291Z,1.8
2018-05-21T14:01:08.519Z,3.1
2018-05-21T14:02:15.741Z,4.2
2018-05-21T22:00:06.313Z,54.1
2018-05-21T22:01:13.520Z,54.5
2018-05-21T22:02:20.740Z,54.1
2018-05-21T22:03:28.167Z,52.6
2018-05-21T22:04:35.614Z,55.7
2018-05-21T22:05:42.824Z,55.8
2018-05-21T22:06:50.035Z,53.9
2018-05-21T22:07:57.291Z,58.1
2018-05-21T22:09:04.500Z,56.1
2018-05-21T22:10:11.714Z,58.1
2018-05-21T22:11:18.927Z,57.2
2018-05-21T22:12:26.135Z,58.3
2018-05-21T22:13:33.344Z,57.7
2018-05-21T22:14:40.556Z,57.9
2018-05-21T22:15:47.771Z,58
2018-05-21T22:16:54.999Z,58.6
2018-05-21T22:18:01.937Z,58.6
2018-05-21T22:19:09.151Z,61.4
2018-05-21T22:20:16.768Z,57.2
2018-05-21T22:21:23.992Z,58.9
2018-05-21T22:22:31.219Z,59.4
2018-05-21T22:23:38.446Z,58
2018-05-21T22:24:45.660Z,59.4
2018-05-21T22:25:52.865Z,60.3
2018-05-21T22:27:00.079Z,59.6
2018-05-21T22:28:07.312Z,60.2
2018-05-21T22:29:14.245Z,60.2
2018-05-21T22:30:21.450Z,60.4
2018-05-21T22:31:28.662Z,58.6
2018-05-21T22:32:35.602Z,60.7
2018-05-21T22:33:42.827Z,62.3
2018-05-21T22:34:49.487Z,63
2018-05-21T22:35:56.422Z,62.7
2018-05-21T22:37:03.629Z,62.5
2018-05-21T22:38:10.845Z,62.7
2018-05-21T22:39:18.048Z,63.5
2018-05-21T22:40:25.262Z,63.5
2018-05-21T22:41:32.487Z,63.9
2018-05-21T22:42:39.696Z,65
2018-05-21T22:43:46.652Z,63.8
2018-05-21T22:44:53.861Z,65.8
2018-05-21T22:46:01.090Z,66.2
2018-05-21T22:47:08.290Z,68.3
2018-05-21T22:48:15.223Z,66.5
2018-05-21T22:49:22.427Z,68
2018-05-21T22:50:29.641Z,68.8
2018-05-21T22:51:36.573Z,71.4
2018-05-21T22:52:43.859Z,70.4
2018-05-21T22:53:51.069Z,69.8
2018-05-21T22:54:58.281Z,69.1
2018-05-21T22:56:05.489Z,71.3
2018-05-21T22:57:12.698Z,66.5
2018-05-21T22:58:19.932Z,73.6
2018-05-21T22:59:27.146Z,74.8
2018-05-21T23:00:34.117Z,73.6
2018-05-21T23:01:41.396Z,75.3
2018-05-21T23:02:48.337Z,76
2018-05-21T23:03:55.266Z,76.7
2018-05-21T23:05:02.500Z,75.1
2018-05-21T23:06:09.712Z,76
2018-05-21T23:07:16.937Z,77.5
2018-05-21T23:08:24.161Z,76.2